createdAt,value
2019-01-16T03:06:52.851Z,49.27
2019-01-16T03:11:53.960Z,49.82
2019-01-16T03:12:44.291Z,49.88
2019-01-16T03:14:18.307Z,50.00
2019-01-16T03:15:44.314Z,50.04
2019-01-16T03:17:13.113Z,50.29
2019-01-16T03:17:49.912Z,50.21
2019-01-16T03:18:23.980Z,50.24
2019-01-16T03:18:55.410Z,50.23
2019-01-16T03:26:06.126Z,49.37
2019-01-16T03:26:46.514Z,49.20
2019-01-16T03:28:10.166Z,49.13
2019-01-16T03:29:35.563Z,49.47
2019-01-16T03:30:09.513Z,49.57
2019-01-16T03:30:49.610Z,49.55
2019-01-16T03:32:16.862Z,49.58
2019-01-16T03:32:51.681Z,49.63
2019-01-16T03:34:13.179Z,49.63
2019-01-16T03:34:57.033Z,49.63
2019-01-16T03:36:25.695Z,50.00
2019-01-16T03:38:48.970Z,49.94
2019-01-16T03:41:08.506Z,49.07
2019-01-16T03:56:59.911Z,48.90
2019-01-16T03:57:44.607Z,49.19
2019-01-16T03:59:14.686Z,48.88
2019-01-16T04:00:03.596Z,48.95
2019-01-16T04:03:17.571Z,48.95
2019-01-16T04:07:14.129Z,48.56
2019-01-16T04:11:16.702Z,48.26
2019-01-16T04:15:03.105Z,48.31
2019-01-16T04:16:34.218Z,48.16
2019-01-16T04:18:22.040Z,47.81
2019-01-16T04:26:18.790Z,46.66
2019-01-16T04:27:43.841Z,46.30
2019-01-16T04:29:21.563Z,46.24
2019-01-16T04:30:52.479Z,46.11
2019-01-16T04:31:24.332Z,46.16
2019-01-16T04:34:28.207Z,46.07
2019-01-16T04:35:01.946Z,46.15
2019-01-16T04:36:26.373Z,46.06
2019-01-16T04:36:57.675Z,46.01
2019-01-16T04:37:28.922Z,46.00
2019-01-16T04:38:00.117Z,45.96
2019-01-16T04:38:31.345Z,46.08
2019-01-16T04:39:02.570Z,45.97
2019-01-16T04:39:33.848Z,45.85
2019-01-16T04:40:05.062Z,45.75
2019-01-16T04:40:36.320Z,45.77
2019-01-16T04:41:07.655Z,45.68
2019-01-16T04:41:38.878Z,45.68
2019-01-16T04:42:10.127Z,45.77
2019-01-16T04:42:41.306Z,45.69
2019-01-16T04:43:12.518Z,45.66
2019-01-16T04:43:43.737Z,45.54
2019-01-16T04:44:14.955Z,45.39
2019-01-16T04:44:46.227Z,45.32
2019-01-16T04:45:17.454Z,45.33
2019-01-16T04:45:48.737Z,45.26
2019-01-16T04:46:19.936Z,45.16
2019-01-16T04:46:51.276Z,45.23
2019-01-16T04:47:22.588Z,45.27
2019-01-16T04:47:55.934Z,45.34
2019-01-16T04:48:26.794Z,45.29
2019-01-16T04:48:58.234Z,45.33
2019-01-16T04:49:30.584Z,45.34
2019-01-16T04:50:02.064Z,45.29
2019-01-16T04:50:33.416Z,45.35
2019-01-16T04:51:04.731Z,45.38
2019-01-16T04:51:35.960Z,45.84
2019-01-16T04:52:15.381Z,45.62
2019-01-16T04:52:46.606Z,45.34
2019-01-16T04:53:17.897Z,45.28
2019-01-16T04:53:49.143Z,45.25
2019-01-16T04:54:20.592Z,45.82
2019-01-16T04:54:51.858Z,45.15
2019-01-16T04:55:23.200Z,44.99
2019-01-16T04:55:55.033Z,44.92
2019-01-16T04:56:26.264Z,44.81
2019-01-16T04:57:00.619Z,44.80
2019-01-16T04:57:31.885Z,44.84
2019-01-16T04:58:03.087Z,44.86
2019-01-16T04:58:34.332Z,44.74
2019-01-16T04:59:05.603Z,44.74
2019-01-16T04:59:36.873Z,44.78
2019-01-16T05:00:10.362Z,44.82
2019-01-16T05:00:41.697Z,44.69
2019-01-16T05:01:12.969Z,44.74
2019-01-16T05:01:44.369Z,44.67
2019-01-16T05:02:15.630Z,44.71
2019-01-16T05:03:23.720Z,44.78
2019-01-16T05:04:00.852Z,44.69
2019-01-16T05:04:38.067Z,44.72
2019-01-16T05:05:14.403Z,44.74
2019-01-16T05:05:45.732Z,44.91
2019-01-16T05:06:17.514Z,44.85
2019-01-16T05:07:58.451Z,44.96
2019-01-16T05:08:31.045Z,45.22
2019-01-16T05:09:02.364Z,45.16
2019-01-16T05:09:34.248Z,45.38
2019-01-16T05:10:06.347Z,45.28
2019-01-16T05:10:38.215Z,45.31
2019-01-16T05:11:13.437Z,45.20
2019-01-16T05:11:47.386Z,45.34
2019-01-16T05:12:19.675Z,45.14
2019-01-16T05:12:53.044Z,45.26
2019-01-16T05:13:24.857Z,45.28
2019-01-16T05:13:57.532Z,45.30
2019-01-16T05:14:36.709Z,45.33
2019-01-16T05:15:08.583Z,45.58
2019-01-16T05:15:39.915Z,45.31
2019-01-16T05:16:11.428Z,45.26
2019-01-16T05:16:42.847Z,45.31
2019-01-16T05:17:19.708Z,45.30
2019-01-16T05:17:52.253Z,45.38
2019-01-16T05:18:25.328Z,45.39
2019-01-16T05:18:56.724Z,45.45
2019-01-16T05:19:28.573Z,45.50
2019-01-16T05:20:08.734Z,45.62
2019-01-16T05:20:40.068Z,45.76
2019-01-16T05:21:11.316Z,45.80
2019-01-16T05:21:42.705Z,45.79
2019-01-16T05:22:15.233Z,45.93
2019-01-16T05:22:46.997Z,46.11
2019-01-16T05:23:18.388Z,46.14
2019-01-16T05:23:49.899Z,46.16
2019-01-16T05:24:21.224Z,46.21
2019-01-16T05:24:52.560Z,46.25
2019-01-16T05:25:23.851Z,46.29
2019-01-16T05:25:55.118Z,46.37
2019-01-16T05:26:27.733Z,46.45
2019-01-16T05:26:59.176Z,46.42
2019-01-16T05:27:30.404Z,46.44
2019-01-16T05:28:01.626Z,46.39
2019-01-16T05:28:33.248Z,46.42
2019-01-16T05:29:04.678Z,46.46
2019-01-16T05:29:39.583Z,46.41
2019-01-16T05:31:11.507Z,46.40
2019-01-16T05:31:42.960Z,46.63
2019-01-16T05:32:22.441Z,46.53
2019-01-16T05:32:54.699Z,46.42
2019-01-16T05:33:34.050Z,46.19
2019-01-16T05:34:09.350Z,46.21
2019-01-16T05:34:47.494Z,46.06
2019-01-16T05:35:19.217Z,45.82
2019-01-16T05:35:51.225Z,45.72
2019-01-16T05:36:31.268Z,45.84
2019-01-16T05:37:02.706Z,45.62
2019-01-16T05:37:34.007Z,45.53
2019-01-16T05:38:06.327Z,45.39
2019-01-16T05:38:45.203Z,45.45
2019-01-16T05:40:15.247Z,45.14
2019-01-16T05:41:37.957Z,44.89
2019-01-16T05:42:09.379Z,44.87
2019-01-16T05:42:40.785Z,45.18
2019-01-16T05:43:27.184Z,44.78
2019-01-16T05:43:58.523Z,44.62
2019-01-16T05:44:29.805Z,44.37
2019-01-16T05:45:06.839Z,44.34
2019-01-16T05:45:38.859Z,44.40
2019-01-16T05:46:21.439Z,44.41
2019-01-16T05:46:55.520Z,44.44
2019-01-16T05:47:31.116Z,44.73
2019-01-16T05:48:02.388Z,43.94
2019-01-16T05:48:37.061Z,43.55
2019-01-16T05:49:10.728Z,43.65
2019-01-16T05:49:46.865Z,44.08
2019-01-16T05:50:19.915Z,43.76
2019-01-16T05:50:51.820Z,43.79
2019-01-16T05:51:25.252Z,43.87
2019-01-16T05:51:56.895Z,44.26
2019-01-16T05:52:28.851Z,44.25
2019-01-16T05:53:01.018Z,43.92
2019-01-16T05:53:39.866Z,43.92
2019-01-16T05:54:11.011Z,44.63
2019-01-16T05:54:42.355Z,43.83
2019-01-16T05:55:13.580Z,43.61
2019-01-16T05:55:44.840Z,43.52
2019-01-16T05:56:16.036Z,43.57
2019-01-16T05:56:47.275Z,43.44
2019-01-16T05:57:18.551Z,43.43
2019-01-16T05:57:49.827Z,43.49
2019-01-16T05:58:21.060Z,43.58
2019-01-16T05:58:52.334Z,43.27
2019-01-16T05:59:23.715Z,43.24
2019-01-16T05:59:55.050Z,44.60
2019-01-16T06:00:26.308Z,43.34
2019-01-16T06:00:57.515Z,43.28
2019-01-16T06:01:28.763Z,43.20
2019-01-16T06:02:00.062Z,43.54
2019-01-16T06:02:31.320Z,43.27
2019-01-16T06:03:02.581Z,43.38
2019-01-16T06:03:33.832Z,42.95
2019-01-16T06:04:05.069Z,43.35
2019-01-16T06:04:36.333Z,43.74
2019-01-16T06:05:07.569Z,42.80
2019-01-16T06:05:38.874Z,42.79
2019-01-16T06:06:10.172Z,42.81
2019-01-16T06:06:41.379Z,42.85
2019-01-16T06:07:12.581Z,43.05
2019-01-16T06:07:44.830Z,42.75
2019-01-16T06:08:16.159Z,43.42
2019-01-16T06:08:47.492Z,43.40
2019-01-16T06:09:18.688Z,43.05
2019-01-16T06:09:49.979Z,42.83
2019-01-16T06:10:21.211Z,42.60
2019-01-16T06:10:53.479Z,42.73
2019-01-16T06:11:24.699Z,42.91
2019-01-16T06:11:55.874Z,42.98
2019-01-16T06:12:27.063Z,44.04
2019-01-16T06:12:58.271Z,43.29
2019-01-16T06:13:29.534Z,43.05
2019-01-16T06:14:00.762Z,43.12
2019-01-16T06:14:31.994Z,43.33
2019-01-16T06:15:03.302Z,43.37
2019-01-16T06:15:34.523Z,43.38
2019-01-16T06:16:05.785Z,43.35
2019-01-16T06:16:37.004Z,43.99
2019-01-16T06:17:08.299Z,43.42
2019-01-16T06:17:39.551Z,43.41
2019-01-16T06:18:11.826Z,43.47
2019-01-16T06:18:43.114Z,43.45
2019-01-16T06:19:14.390Z,43.46
2019-01-16T06:19:45.767Z,43.78
2019-01-16T06:20:17.138Z,43.53
2019-01-16T06:20:48.818Z,43.33
2019-01-16T06:21:20.083Z,43.84
2019-01-16T06:21:51.370Z,43.82
2019-01-16T06:22:22.740Z,43.12
2019-01-16T06:22:54.006Z,43.17
2019-01-16T06:23:25.203Z,43.01
2019-01-16T06:23:56.570Z,42.87
2019-01-16T06:24:27.783Z,42.51
2019-01-16T06:24:59.060Z,42.54
2019-01-16T06:25:30.329Z,43.28
2019-01-16T06:26:01.601Z,42.81
2019-01-16T06:26:32.786Z,42.00
2019-01-16T06:27:04.061Z,41.89
2019-01-16T06:27:35.326Z,42.19
2019-01-16T06:28:06.499Z,41.89
2019-01-16T06:28:37.701Z,41.68
2019-01-16T06:29:08.910Z,41.22
2019-01-16T06:29:40.882Z,41.08
2019-01-16T06:30:12.145Z,41.07
2019-01-16T06:30:43.403Z,41.47
2019-01-16T06:31:14.628Z,41.30
2019-01-16T06:31:45.891Z,41.33
2019-01-16T06:32:17.076Z,41.64
2019-01-16T06:32:49.314Z,41.47
2019-01-16T06:33:20.622Z,41.13
2019-01-16T06:33:51.822Z,41.20
2019-01-16T06:34:23.091Z,41.92
2019-01-16T06:34:54.261Z,42.28
2019-01-16T06:35:25.561Z,41.24
2019-01-16T06:35:56.797Z,40.98
2019-01-16T06:36:28.017Z,41.20
2019-01-16T06:36:59.210Z,41.83
2019-01-16T06:37:30.407Z,42.35
2019-01-16T06:38:01.754Z,40.86
2019-01-16T06:38:32.955Z,40.90
2019-01-16T06:39:04.167Z,40.68
2019-01-16T06:39:35.451Z,40.61
2019-01-16T06:40:06.677Z,40.51
2019-01-16T06:40:37.904Z,40.61
2019-01-16T06:41:10.246Z,40.53
2019-01-16T06:41:41.564Z,41.70
2019-01-16T06:42:12.815Z,40.61
2019-01-16T06:42:44.026Z,40.46
2019-01-16T06:43:15.297Z,40.69
2019-01-16T06:43:46.596Z,40.57
2019-01-16T06:44:17.896Z,40.87
2019-01-16T06:44:49.103Z,41.16
2019-01-16T06:45:20.449Z,40.74
2019-01-16T06:45:51.645Z,41.02
2019-01-16T06:46:22.961Z,41.12
2019-01-16T06:46:54.782Z,40.98
2019-01-16T06:47:37.449Z,40.79
2019-01-16T06:48:21.141Z,40.86
2019-01-16T06:49:00.643Z,41.20
2019-01-16T06:50:27.728Z,41.14
2019-01-16T06:50:58.892Z,41.43
2019-01-16T06:51:30.087Z,42.33
2019-01-16T06:52:01.284Z,41.11
2019-01-16T06:52:32.592Z,40.33
2019-01-16T06:53:03.897Z,40.30
2019-01-16T06:53:35.178Z,40.50
2019-01-16T06:54:22.847Z,40.29
2019-01-16T06:54:54.156Z,40.28
2019-01-16T06:55:25.441Z,40.03
2019-01-16T06:55:56.755Z,40.02
2019-01-16T06:56:27.988Z,40.10
2019-01-16T06:56:59.269Z,39.77
2019-01-16T06:57:30.517Z,39.84
2019-01-16T06:58:01.691Z,39.84
2019-01-16T06:58:32.911Z,40.67
2019-01-16T06:59:04.107Z,41.29
2019-01-16T06:59:35.367Z,39.50
2019-01-16T07:00:06.698Z,39.13
2019-01-16T07:00:37.881Z,39.21
2019-01-16T07:01:09.050Z,39.23
2019-01-16T07:01:40.243Z,39.35
2019-01-16T07:02:11.423Z,39.42
2019-01-16T07:02:42.609Z,41.09
2019-01-16T07:03:13.855Z,39.37
2019-01-16T07:03:46.022Z,39.25
2019-01-16T07:04:17.390Z,39.29
2019-01-16T07:04:48.638Z,39.29
2019-01-16T07:05:19.804Z,39.57
2019-01-16T07:05:51.030Z,40.34
2019-01-16T07:06:22.325Z,40.34
2019-01-16T07:07:11.353Z,39.17
2019-01-16T07:07:53.947Z,38.66
2019-01-16T07:08:33.637Z,38.77
2019-01-16T07:09:09.736Z,39.28
2019-01-16T07:09:51.050Z,38.80
2019-01-16T07:10:24.502Z,38.16
2019-01-16T07:11:12.151Z,39.23
2019-01-16T07:12:48.894Z,37.62
2019-01-16T07:13:20.172Z,37.86
2019-01-16T07:13:51.434Z,38.36
2019-01-16T07:14:22.674Z,38.27
2019-01-16T07:14:53.913Z,38.45
2019-01-16T07:15:25.187Z,38.67
2019-01-16T07:15:56.780Z,39.77
2019-01-16T07:19:07.126Z,38.60
2019-01-16T07:20:41.200Z,37.09
2019-01-16T07:21:12.469Z,37.36
2019-01-16T07:22:34.017Z,38.31
2019-01-16T07:24:07.330Z,38.24
2019-01-16T07:24:38.668Z,40.11
2019-01-16T07:25:15.099Z,39.68
2019-01-16T07:25:51.753Z,39.41
2019-01-16T07:26:24.984Z,38.96
2019-01-16T07:26:56.347Z,38.20
2019-01-16T07:27:27.641Z,39.94
2019-01-16T07:27:58.911Z,38.23
2019-01-16T07:29:20.305Z,37.33
2019-01-16T07:29:51.705Z,37.49
2019-01-16T07:30:22.953Z,37.81
2019-01-16T07:31:45.341Z,38.68
2019-01-16T07:32:16.533Z,38.86
2019-01-16T07:32:47.754Z,38.71
2019-01-16T07:33:18.973Z,37.34
2019-01-16T07:33:50.149Z,37.70
2019-01-16T07:34:21.404Z,36.90
2019-01-16T07:34:52.586Z,37.05
2019-01-16T07:35:23.821Z,36.86
2019-01-16T07:35:55.071Z,37.22
2019-01-16T07:36:26.321Z,37.04
2019-01-16T07:36:57.543Z,37.90
2019-01-16T07:37:28.765Z,37.55
2019-01-16T07:37:59.958Z,37.27
2019-01-16T07:38:31.498Z,37.39
2019-01-16T07:39:02.867Z,37.48
2019-01-16T07:39:34.104Z,39.53
2019-01-16T07:40:05.319Z,37.70
2019-01-16T07:40:37.006Z,38.29
2019-01-16T07:41:08.219Z,37.36
2019-01-16T07:41:39.468Z,38.12
2019-01-16T07:42:10.694Z,38.16
2019-01-16T07:42:46.807Z,37.83
2019-01-16T07:43:14.967Z,37.77
2019-01-16T07:43:46.201Z,37.58
2019-01-16T07:44:18.846Z,37.43
2019-01-16T07:44:50.125Z,37.65
2019-01-16T07:45:21.401Z,37.91
2019-01-16T07:45:53.564Z,37.45
2019-01-16T07:46:28.890Z,37.65
2019-01-16T08:06:19.505Z,37.14
2019-01-16T08:06:50.875Z,37.52
2019-01-16T08:07:24.915Z,37.65
2019-01-16T08:08:16.083Z,36.93
2019-01-16T09:55:36.242Z,32.60
2019-01-16T09:56:08.491Z,32.57
2019-01-16T09:56:39.763Z,31.59
2019-01-16T09:57:10.989Z,31.17
2019-01-16T09:57:42.208Z,32.17
2019-01-16T09:58:13.556Z,31.51
2019-01-16T09:58:44.889Z,31.46
2019-01-16T09:59:16.224Z,31.99
2019-01-16T09:59:47.509Z,32.09
2019-01-16T10:00:20.399Z,31.37
2019-01-16T10:00:54.397Z,32.42
2019-01-16T10:01:26.333Z,31.18
2019-01-16T10:01:57.660Z,32.36
2019-01-16T10:02:29.474Z,31.78
2019-01-16T10:03:00.899Z,31.69
2019-01-16T10:03:32.139Z,31.53
2019-01-16T10:04:05.721Z,31.57
2019-01-16T10:04:38.017Z,31.56
2019-01-16T10:05:12.072Z,31.22
2019-01-16T10:05:45.370Z,31.67
2019-01-16T10:06:16.649Z,31.80
2019-01-16T10:06:48.005Z,31.73
2019-01-16T10:07:19.378Z,31.24
2019-01-16T10:07:50.829Z,30.95
2019-01-16T10:08:23.116Z,30.48
2019-01-16T10:08:54.921Z,31.33
2019-01-16T10:10:17.882Z,30.26
2019-01-16T10:10:50.173Z,29.87
2019-01-16T10:11:23.731Z,30.28
2019-01-16T10:11:55.008Z,29.97
2019-01-16T10:12:26.467Z,30.27
2019-01-16T10:13:00.223Z,29.95
2019-01-16T10:13:31.533Z,30.00
2019-01-16T10:14:02.802Z,30.16
2019-01-16T10:14:34.161Z,30.59
2019-01-16T10:15:05.410Z,30.42
2019-01-16T10:15:36.836Z,30.98
2019-01-16T10:16:08.791Z,30.30
2019-01-16T10:16:41.027Z,30.57
2019-01-16T10:17:12.957Z,30.48
2019-01-16T10:17:44.408Z,30.44
2019-01-16T10:18:16.350Z,30.40
2019-01-16T10:18:47.855Z,30.79
2019-01-16T10:19:19.226Z,30.70
2019-01-16T10:19:50.513Z,30.20
2019-01-16T10:20:21.895Z,30.53
2019-01-16T10:20:55.787Z,30.48
2019-01-16T10:21:26.886Z,31.02
2019-01-16T10:21:58.183Z,30.67
2019-01-16T10:22:29.572Z,31.45
2019-01-16T10:23:05.003Z,30.47
2019-01-16T10:23:36.295Z,30.09
2019-01-16T10:24:10.025Z,30.88
2019-01-16T10:24:44.477Z,30.29
2019-01-16T10:25:15.744Z,29.67
2019-01-16T10:25:49.673Z,29.58
2019-01-16T10:26:21.070Z,29.76
2019-01-16T10:26:52.428Z,29.96
2019-01-16T10:27:23.707Z,30.11
2019-01-16T10:27:56.069Z,30.20
2019-01-16T10:28:38.568Z,30.40
2019-01-16T10:29:10.963Z,30.47
2019-01-16T10:29:42.241Z,30.70
2019-01-16T10:30:13.617Z,31.65
2019-01-16T10:30:45.418Z,30.78
2019-01-16T10:31:18.965Z,30.33
2019-01-16T10:31:50.213Z,31.07
2019-01-16T10:32:21.410Z,30.69
2019-01-16T10:32:52.646Z,30.84
2019-01-16T10:33:23.866Z,31.24
2019-01-16T10:33:54.967Z,31.14
2019-01-16T10:34:26.207Z,30.97
2019-01-16T10:34:58.197Z,30.80
2019-01-16T10:35:29.419Z,30.95
2019-01-16T10:36:00.623Z,30.87
2019-01-16T10:36:32.919Z,30.63
2019-01-16T10:37:05.229Z,30.96
2019-01-16T10:37:36.448Z,30.88
2019-01-16T10:38:07.692Z,30.78
2019-01-16T10:38:38.889Z,31.59
2019-01-16T10:39:10.131Z,31.58
2019-01-16T10:39:41.449Z,30.35
2019-01-16T10:40:12.803Z,30.80
2019-01-16T10:40:44.001Z,30.35
2019-01-16T10:41:18.817Z,30.88
2019-01-16T10:41:51.071Z,30.56
2019-01-16T10:42:22.410Z,30.53
2019-01-16T10:42:53.625Z,30.50
2019-01-16T10:45:21.498Z,30.79
2019-01-16T10:46:42.725Z,30.06
2019-01-16T10:47:13.909Z,30.11
2019-01-16T10:47:48.316Z,30.37
2019-01-16T10:48:19.519Z,30.53
2019-01-16T10:48:51.071Z,30.32
2019-01-16T10:49:22.264Z,30.82
2019-01-16T10:49:53.431Z,30.51
2019-01-16T10:50:27.736Z,30.65
2019-01-16T10:51:03.207Z,30.93
2019-01-16T10:51:31.869Z,31.55
2019-01-16T10:52:03.087Z,31.26
2019-01-16T10:52:34.298Z,31.18
2019-01-16T10:53:05.557Z,32.15
2019-01-16T10:53:36.791Z,31.01
2019-01-16T10:54:08.037Z,31.41
2019-01-16T10:54:39.918Z,31.73
2019-01-16T10:55:11.124Z,30.64
2019-01-16T10:55:42.432Z,30.83
2019-01-16T10:56:22.301Z,30.55
2019-01-16T10:56:58.210Z,30.56
2019-01-16T10:57:29.466Z,30.96
2019-01-16T10:58:00.777Z,31.16
2019-01-16T10:58:32.083Z,31.44
2019-01-16T10:59:03.353Z,30.83
2019-01-16T10:59:34.632Z,30.32
2019-01-16T11:00:05.886Z,29.95
2019-01-16T11:00:37.131Z,30.43
2019-01-16T11:01:08.359Z,30.82
2019-01-16T11:01:39.619Z,30.71
2019-01-16T11:02:10.867Z,30.74
2019-01-16T11:02:42.093Z,30.02
2019-01-16T11:03:13.366Z,29.85
2019-01-16T11:03:44.621Z,29.16
2019-01-16T11:04:15.816Z,29.40
2019-01-16T11:04:47.014Z,29.78
2019-01-16T11:05:18.215Z,29.81
2019-01-16T11:05:49.410Z,30.05
2019-01-16T11:06:20.611Z,30.59
2019-01-16T11:06:51.855Z,30.23
2019-01-16T11:07:23.161Z,29.52
2019-01-16T11:07:54.425Z,30.38
2019-01-16T11:08:25.652Z,29.72
2019-01-16T11:08:56.959Z,29.29
2019-01-16T11:09:37.693Z,29.73
2019-01-16T11:10:08.803Z,29.47
2019-01-16T11:10:40.082Z,29.64
2019-01-16T11:11:16.015Z,29.63
2019-01-16T11:11:44.280Z,29.44
2019-01-16T11:12:15.688Z,30.20
2019-01-16T11:13:40.715Z,29.26
2019-01-16T11:14:14.160Z,29.15
2019-01-16T11:14:55.007Z,30.08
2019-01-16T11:16:17.563Z,29.70
2019-01-16T11:16:56.405Z,29.77
2019-01-16T11:17:24.108Z,29.61
2019-01-16T11:17:55.436Z,30.02
2019-01-16T11:18:27.222Z,29.62
2019-01-16T11:18:58.489Z,30.36
2019-01-16T11:19:29.710Z,29.45
2019-01-16T11:20:01.136Z,29.03
2019-01-16T11:20:32.411Z,29.51
2019-01-16T11:21:10.803Z,29.77
2019-01-16T11:21:36.623Z,29.42
2019-01-16T11:22:07.806Z,30.68
2019-01-16T11:22:39.113Z,29.66
2019-01-16T11:23:10.366Z,29.63
2019-01-16T11:23:41.685Z,29.96
2019-01-16T11:24:12.879Z,30.04
2019-01-16T11:24:44.055Z,30.12
2019-01-16T11:25:15.260Z,30.26
2019-01-16T11:25:46.494Z,30.82
2019-01-16T11:26:17.737Z,30.61
2019-01-16T11:26:48.981Z,30.79
2019-01-16T11:27:20.183Z,30.86
2019-01-16T11:27:51.455Z,30.84
2019-01-16T11:28:22.630Z,30.97
2019-01-16T11:28:54.634Z,30.94
2019-01-16T11:29:25.832Z,31.25
2019-01-16T11:29:57.024Z,31.30
2019-01-16T11:30:29.877Z,31.63
2019-01-16T11:31:01.191Z,31.27
2019-01-16T11:31:34.744Z,30.92
2019-01-16T11:32:06.093Z,30.85
2019-01-16T11:32:37.456Z,31.39
2019-01-16T11:33:08.668Z,31.18
2019-01-16T11:33:39.945Z,31.93
2019-01-16T11:34:11.924Z,30.78
2019-01-16T11:34:43.139Z,31.28
2019-01-16T11:35:14.459Z,30.94
2019-01-16T11:35:45.780Z,30.59
2019-01-16T11:36:17.947Z,30.51
2019-01-16T11:36:49.614Z,30.68
2019-01-16T11:37:21.004Z,31.09
2019-01-16T11:37:52.306Z,30.60
2019-01-16T11:38:23.540Z,31.27
2019-01-16T11:38:54.745Z,30.65
2019-01-16T11:39:25.945Z,31.55
2019-01-16T11:40:04.426Z,30.54
2019-01-16T11:40:30.155Z,30.56
2019-01-16T11:41:01.361Z,29.84
2019-01-16T11:41:32.565Z,30.49
2019-01-16T11:42:03.882Z,31.01
2019-01-16T11:42:35.194Z,30.34
2019-01-16T11:43:25.083Z,30.04
2019-01-16T11:43:56.397Z,29.36
2019-01-16T11:44:27.665Z,29.27
2019-01-16T11:45:00.941Z,29.46
2019-01-16T11:45:32.238Z,29.68
2019-01-16T11:46:04.430Z,29.73
2019-01-16T11:46:36.644Z,29.66
2019-01-16T11:47:09.636Z,30.29
2019-01-16T11:47:41.016Z,30.76
2019-01-16T11:48:13.479Z,29.77
2019-01-16T11:48:44.705Z,30.35
2019-01-16T11:49:16.418Z,30.06
2019-01-16T11:49:47.758Z,29.73
2019-01-16T11:50:18.944Z,29.65
2019-01-16T11:50:50.273Z,29.51
2019-01-16T11:51:21.548Z,31.14
2019-01-16T11:51:52.786Z,30.35
2019-01-16T11:52:24.025Z,30.16
2019-01-16T11:52:55.673Z,30.33
2019-01-16T11:53:26.945Z,29.58
2019-01-16T11:53:58.186Z,29.58
2019-01-16T11:54:30.706Z,30.79
2019-01-16T11:55:01.966Z,29.49
2019-01-16T11:55:33.264Z,29.38
2019-01-16T11:56:04.571Z,29.63
2019-01-16T11:56:35.755Z,29.95
2019-01-16T11:57:07.066Z,30.04
2019-01-16T11:57:38.331Z,29.86
2019-01-16T11:58:09.645Z,30.38
2019-01-16T11:58:40.911Z,29.77
2019-01-16T11:59:13.295Z,29.74
2019-01-16T11:59:44.533Z,30.20
2019-01-16T12:00:15.928Z,29.95
2019-01-16T12:00:47.239Z,31.35
2019-01-16T12:01:18.475Z,29.79
2019-01-16T12:01:49.652Z,30.26
2019-01-16T12:02:20.886Z,30.39
2019-01-16T12:02:52.096Z,30.71
2019-01-16T12:03:23.347Z,30.13
2019-01-16T12:03:54.645Z,31.71
2019-01-16T12:04:25.888Z,30.26
2019-01-16T12:04:57.093Z,30.46
2019-01-16T12:05:28.282Z,30.69
2019-01-16T12:06:03.344Z,29.75
2019-01-16T12:06:34.670Z,30.90
2019-01-16T12:07:06.596Z,30.49
2019-01-16T12:07:39.154Z,30.39
2019-01-16T12:08:10.982Z,30.38
2019-01-16T12:08:43.276Z,30.50
2019-01-16T12:09:14.542Z,30.49
2019-01-16T12:09:45.820Z,30.55
2019-01-16T12:10:18.949Z,30.74
2019-01-16T12:10:50.139Z,31.38
2019-01-16T12:11:21.354Z,31.61
2019-01-16T12:11:54.822Z,31.71
2019-01-16T12:12:26.106Z,31.64
2019-01-16T12:14:06.254Z,31.12
2019-01-16T12:14:37.470Z,31.59
2019-01-16T12:16:51.155Z,30.60
2019-01-16T12:18:25.965Z,31.69
2019-01-16T12:18:57.588Z,30.98
2019-01-16T12:19:46.237Z,31.26
2019-01-16T12:20:17.500Z,31.99
2019-01-16T12:20:48.924Z,31.06
2019-01-16T12:21:38.688Z,31.85
2019-01-16T12:26:57.749Z,32.09
2019-01-16T12:27:30.027Z,31.21
2019-01-16T12:28:05.135Z,31.51
2019-01-16T12:31:16.175Z,31.45
2019-01-16T12:31:47.355Z,32.20
2019-01-16T12:32:18.610Z,31.74
2019-01-16T12:32:49.864Z,31.77
2019-01-16T12:33:26.031Z,31.34
2019-01-16T12:33:57.267Z,31.12
2019-01-16T12:34:29.139Z,31.57
2019-01-16T12:35:00.407Z,31.20
2019-01-16T12:35:31.670Z,32.44
2019-01-16T12:36:04.130Z,31.39
2019-01-16T12:36:35.348Z,32.58
2019-01-16T12:37:06.614Z,32.31
2019-01-16T12:37:45.994Z,33.17
2019-01-16T12:38:17.294Z,31.48
2019-01-16T12:38:48.773Z,32.60
2019-01-16T12:39:37.124Z,31.91
2019-01-16T12:40:16.403Z,31.43
2019-01-16T12:41:00.665Z,31.19
2019-01-16T12:41:32.374Z,32.31
2019-01-16T12:42:03.700Z,31.76
2019-01-16T12:42:38.421Z,31.19
2019-01-16T12:43:10.177Z,32.17
2019-01-16T12:44:33.698Z,32.61
2019-01-16T12:45:05.010Z,30.77
2019-01-16T12:45:45.237Z,31.94
2019-01-16T12:46:16.484Z,31.83
2019-01-16T12:46:47.739Z,30.74
2019-01-16T12:47:19.993Z,31.40
2019-01-16T12:47:53.387Z,30.93
2019-01-16T12:48:24.643Z,31.67
2019-01-16T12:48:55.982Z,30.96
2019-01-16T12:49:29.736Z,31.54
2019-01-16T12:50:01.092Z,32.46
2019-01-16T12:50:32.367Z,32.18
2019-01-16T12:51:03.654Z,31.13
2019-01-16T12:51:34.849Z,32.74
2019-01-16T12:52:57.397Z,31.01
2019-01-16T12:53:28.776Z,31.25
2019-01-16T12:54:50.187Z,31.37
2019-01-16T12:55:22.680Z,31.50
2019-01-16T12:55:55.850Z,32.51
2019-01-16T12:56:29.187Z,31.94
2019-01-16T12:57:11.874Z,32.31
2019-01-16T12:57:43.200Z,32.62
2019-01-16T12:58:14.786Z,31.57
2019-01-16T12:58:51.146Z,32.10
2019-01-16T12:59:22.404Z,32.46
2019-01-16T12:59:55.004Z,31.83
2019-01-16T13:00:42.881Z,32.93
2019-01-16T13:01:16.265Z,31.44
2019-01-16T13:01:47.971Z,31.65
2019-01-16T13:02:27.026Z,31.55
2019-01-16T13:02:58.485Z,32.25
2019-01-16T13:04:22.722Z,31.96
2019-01-16T13:04:54.002Z,32.24
2019-01-16T13:05:25.233Z,32.67
2019-01-16T13:05:57.931Z,31.58
2019-01-16T13:06:31.345Z,31.17
2019-01-16T13:07:06.761Z,32.37
2019-01-16T13:07:38.998Z,31.20
2019-01-16T13:09:40.255Z,31.27
2019-01-16T13:12:49.136Z,31.19
2019-01-16T13:13:20.401Z,31.12
2019-01-16T13:13:56.712Z,31.55
2019-01-16T13:14:30.123Z,31.50
2019-01-16T13:15:03.329Z,31.78
2019-01-16T13:15:34.567Z,32.50
2019-01-16T13:16:09.865Z,31.29
2019-01-16T13:16:48.979Z,31.89
2019-01-16T13:19:25.447Z,31.85
2019-01-16T13:20:50.751Z,31.17
2019-01-16T13:21:39.984Z,31.13
2019-01-16T13:22:17.518Z,31.48
2019-01-16T13:22:56.854Z,31.39
2019-01-16T13:23:29.844Z,32.40
2019-01-16T13:24:01.032Z,31.31
2019-01-16T13:24:32.366Z,31.23
2019-01-16T13:25:04.854Z,31.09
2019-01-16T13:25:36.083Z,31.20
2019-01-16T13:26:07.379Z,31.64
2019-01-16T13:26:39.720Z,31.25
2019-01-16T13:27:13.826Z,30.81
2019-01-16T13:27:45.156Z,31.51
2019-01-16T13:28:16.843Z,31.56
2019-01-16T13:28:59.053Z,31.71
2019-01-16T13:29:30.368Z,31.05
2019-01-16T13:30:01.747Z,32.45
2019-01-16T13:30:32.989Z,31.50
2019-01-16T13:31:06.274Z,30.96
2019-01-16T13:31:53.999Z,30.97
2019-01-16T13:32:28.035Z,31.04
2019-01-16T13:32:59.337Z,31.71
2019-01-16T13:33:30.738Z,31.58
2019-01-16T13:34:02.773Z,32.60
2019-01-16T13:34:33.987Z,32.12
2019-01-16T13:35:11.073Z,32.20
2019-01-16T13:35:45.841Z,31.67
2019-01-16T13:37:59.827Z,31.76
2019-01-16T13:38:31.054Z,31.53
2019-01-16T13:39:06.882Z,31.69
2019-01-16T13:39:38.261Z,32.18
2019-01-16T13:40:09.534Z,32.02
2019-01-16T13:40:40.694Z,31.44
2019-01-16T13:41:11.938Z,31.11
2019-01-16T13:41:43.204Z,31.10
2019-01-16T13:42:14.423Z,31.17
2019-01-16T13:42:45.595Z,31.26
2019-01-16T13:43:18.955Z,31.59
2019-01-16T13:43:50.124Z,31.31
2019-01-16T13:44:23.562Z,31.43
2019-01-16T13:44:54.843Z,31.68
2019-01-16T13:45:26.074Z,32.37
2019-01-16T13:45:57.286Z,31.88
2019-01-16T13:46:28.511Z,32.52
2019-01-16T13:46:59.737Z,31.43
2019-01-16T13:47:30.952Z,31.41
2019-01-16T13:48:03.135Z,31.50
2019-01-16T13:48:34.464Z,31.27
2019-01-16T13:49:05.815Z,31.48
2019-01-16T13:49:41.888Z,31.60
2019-01-16T13:50:13.284Z,31.43
2019-01-16T13:51:02.935Z,31.73
2019-01-16T13:51:34.200Z,32.09
2019-01-16T13:52:05.497Z,31.15
2019-01-16T13:52:36.717Z,31.26
2019-01-16T13:53:07.918Z,31.12
2019-01-16T13:53:39.180Z,31.26
2019-01-16T13:54:10.387Z,31.79
2019-01-16T13:54:41.598Z,32.37
2019-01-16T13:55:12.888Z,31.46
2019-01-16T13:55:44.111Z,31.92
2019-01-16T13:56:15.353Z,31.36
2019-01-16T13:56:46.598Z,31.46
2019-01-16T13:57:17.801Z,32.34
2019-01-16T13:57:49.023Z,31.67
2019-01-16T13:58:21.670Z,31.62
2019-01-16T13:58:52.982Z,31.72
2019-01-16T13:59:24.203Z,32.21
2019-01-16T13:59:55.450Z,32.01
2019-01-16T14:00:26.676Z,33.01
2019-01-16T14:00:58.024Z,32.06
2019-01-16T14:01:29.221Z,31.87